Time;durP1;ratioP1;P1;durP2;ratioP2;P2;SDS_P1;SDS_P2;PMS_P1;PMS_P2;Temp;Humidity;BMP_temperature;BMP_pressure;BME280_temperature;BME280_humidity;BME280_pressure;Samples;Min_cycle;Max_cycle;Signal;HPM_P1;HPM_P2
2020/12/02 00:00:41;;;;;;;12.25;0.70;;;13.20;57.50;;;;;;4950654;29;20122;-50
2020/12/02 00:03:14;;;;;;;5.90;0.60;;;13.40;57.20;;;;;;4946571;29;20051;-49
2020/12/02 00:05:44;;;;;;;11.15;0.93;;;13.60;56.90;;;;;;4948187;29;20130;-52
2020/12/02 00:08:13;;;;;;;8.27;1.13;;;13.80;56.70;;;;;;4947932;29;20047;-53
2020/12/02 00:10:40;;;;;;;6.35;1.40;;;14.00;56.30;;;;;;4946443;29;20032;-48
2020/12/02 00:13:10;;;;;;;7.25;0.75;;;14.10;56.00;;;;;;4948258;29;20058;-49
2020/12/02 00:15:37;;;;;;;6.95;1.38;;;14.30;55.80;;;;;;4950064;29;20150;-48
2020/12/02 00:18:04;;;;;;;10.88;1.05;;;14.50;55.40;;;;;;4946535;29;20064;-49
2020/12/02 00:20:30;;;;;;;5.93;0.60;;;14.60;55.10;;;;;;4948002;29;20129;-49
2020/12/02 00:22:57;;;;;;;4.32;0.57;;;14.80;54.80;;;;;;4947970;29;20075;-49
2020/12/02 00:25:23;;;;;;;5.93;0.32;;;14.90;54.60;;;;;;4946478;29;20040;-47
2020/12/02 00:27:50;;;;;;;6.47;0.60;;;15.10;54.30;;;;;;4949221;29;20048;-50
2020/12/02 00:30:19;;;;;;;3.50;0.50;;;15.20;54.00;;;;;;4947644;29;20071;-50
2020/12/02 00:32:47;;;;;;;6.60;1.30;;;15.30;53.80;;;;;;4944215;29;20079;-50
2020/12/02 00:35:16;;;;;;;5.53;0.95;;;15.40;53.50;;;;;;4946460;29;20122;-51
2020/12/02 00:37:44;;;;;;;8.40;1.00;;;15.50;53.30;;;;;;4947282;29;20055;-51
2020/12/02 00:40:12;;;;;;;6.97;1.65;;;15.60;53.10;;;;;;4930187;29;20458;-47
2020/12/02 00:42:38;;;;;;;6.38;0.82;;;15.70;52.80;;;;;;4950158;29;20110;-48
2020/12/02 00:45:07;;;;;;;5.68;0.68;;;15.80;52.60;;;;;;4929161;29;20138;-50
2020/12/02 00:47:35;;;;;;;8.00;0.60;;;15.90;52.40;;;;;;4947685;29;20063;-48
2020/12/02 00:50:04;;;;;;;7.13;1.10;;;16.00;52.20;;;;;;4932052;29;20051;-52
2020/12/02 00:52:31;;;;;;;8.40;0.65;;;16.10;52.00;;;;;;4946539;29;20052;-51
2020/12/02 00:54:57;;;;;;;3.53;0.32;;;16.20;52.40;;;;;;4948860;29;20059;-51
2020/12/02 00:57:29;;;;;;;5.80;0.85;;;16.30;51.60;;;;;;4950101;29;20040;-52
2020/12/02 00:59:58;;;;;;;7.15;0.75;;;16.40;51.50;;;;;;4946414;29;20047;-51
2020/12/02 01:02:33;;;;;;;6.15;0.82;;;16.40;51.20;;;;;;4946074;29;20039;-50
2020/12/02 01:05:01;;;;;;;9.02;0.98;;;16.60;51.10;;;;;;4946464;29;20404;-51
2020/12/02 01:07:29;;;;;;;6.40;0.90;;;16.60;50.90;;;;;;4946587;29;20464;-51
2020/12/02 01:09:56;;;;;;;8.93;0.65;;;16.70;50.70;;;;;;4948776;29;20636;-52
2020/12/02 01:12:23;;;;;;;5.13;0.85;;;16.70;50.60;;;;;;4947179;29;20462;-50
2020/12/02 01:14:50;;;;;;;3.50;0.30;;;16.80;50.40;;;;;;4946298;29;20482;-50
2020/12/02 01:17:17;;;;;;;5.95;0.63;;;16.90;50.30;;;;;;4945825;29;20055;-52
2020/12/02 01:19:44;;;;;;;4.60;1.77;;;16.90;50.20;;;;;;4947786;29;20043;-49
2020/12/02 01:22:17;;;;;;;8.50;0.40;;;17.00;50.10;;;;;;4931106;29;20060;-50
2020/12/02 01:24:52;;;;;;;4.45;0.70;;;17.10;50.00;;;;;;4950145;29;20114;-51
2020/12/02 01:27:23;;;;;;;4.90;0.20;;;17.10;49.80;;;;;;4949474;29;20051;-52
2020/12/02 01:29:52;;;;;;;5.47;0.40;;;17.20;49.70;;;;;;4946838;29;20062;-52
2020/12/02 01:32:20;;;;;;;4.72;1.05;;;17.20;49.50;;;;;;4947662;29;20126;-49
2020/12/02 01:34:49;;;;;;;5.22;0.88;;;17.30;49.50;;;;;;4947489;29;20055;-52
2020/12/02 01:37:31;;;;;;;17.35;0.60;;;17.30;49.40;;;;;;4945350;29;20122;-48
2020/12/02 01:40:07;;;;;;;6.30;1.02;;;17.40;49.20;;;;;;4949014;29;20047;-52
2020/12/02 01:42:33;;;;;;;6.20;0.70;;;17.40;49.20;;;;;;4952132;29;20522;-49
2020/12/02 01:45:09;;;;;;;4.13;0.60;;;17.50;49.10;;;;;;4950154;29;20486;-52
2020/12/02 01:47:43;;;;;;;5.43;0.30;;;17.50;48.90;;;;;;4949019;29;20086;-49
2020/12/02 01:50:19;;;;;;;5.18;1.00;;;17.50;48.80;;;;;;4950595;29;20047;-52
2020/12/02 01:53:01;;;;;;;4.20;0.20;;;17.60;48.80;;;;;;4950358;29;20051;-51
2020/12/02 01:55:31;;;;;;;4.47;0.65;;;17.60;48.60;;;;;;4950577;29;20714;-50
2020/12/02 01:58:03;;;;;;;5.18;0.20;;;17.60;49.20;;;;;;4951563;29;20581;-50
2020/12/02 02:00:34;;;;;;;4.28;0.68;;;17.70;48.60;;;;;;4951286;29;20138;-47
2020/12/02 02:03:10;;;;;;;7.35;0.45;;;17.70;48.50;;;;;;4949141;29;20051;-50
2020/12/02 02:05:48;;;;;;;3.80;0.50;;;17.80;48.50;;;;;;4949114;29;20051;-49
2020/12/02 02:08:19;;;;;;;6.15;0.30;;;17.80;48.50;;;;;;4949063;29;20510;-48
2020/12/02 02:10:49;;;;;;;3.20;0.20;;;17.80;48.30;;;;;;4949322;29;20126;-49
2020/12/02 02:13:52;;;;;;;4.93;0.40;;;17.80;48.20;;;;;;4934012;29;20051;-49
2020/12/02 02:16:23;;;;;;;7.80;0.25;;;17.90;48.10;;;;;;4935787;29;20784;-50
2020/12/02 02:18:50;;;;;;;5.22;0.30;;;17.90;48.00;;;;;;4952074;29;20047;-54
2020/12/02 02:21:20;;;;;;;3.83;0.17;;;17.90;47.90;;;;;;4949965;29;20121;-53
2020/12/02 02:23:48;;;;;;;5.32;0.32;;;18.00;47.90;;;;;;4949042;29;20055;-50
2020/12/02 02:26:37;;;;;;;3.67;1.08;;;18.00;47.90;;;;;;4949281;29;20506;-48
2020/12/02 02:29:10;;;;;;;16.50;0.47;;;18.00;47.70;;;;;;4950025;29;20507;-49
2020/12/02 02:31:51;;;;;;;8.73;0.10;;;18.00;47.50;;;;;;4949123;29;20452;-49
2020/12/02 02:34:19;;;;;;;2.38;0.68;;;18.10;47.40;;;;;;4934085;29;20050;-48
2020/12/02 02:36:46;;;;;;;3.22;0.30;;;18.10;47.30;;;;;;4948752;29;20138;-51
2020/12/02 02:39:15;;;;;;;8.65;0.55;;;18.10;47.20;;;;;;4947307;29;20051;-52
2020/12/02 02:41:43;;;;;;;7.20;0.50;;;18.10;47.10;;;;;;4949887;29;20118;-49
2020/12/02 02:44:11;;;;;;;5.90;0.20;;;18.20;47.10;;;;;;4949884;29;20055;-51
2020/12/02 02:46:38;;;;;;;10.43;0.50;;;18.20;47.00;;;;;;4950025;29;20039;-52
2020/12/02 02:49:05;;;;;;;1.80;0.25;;;18.20;47.00;;;;;;4949619;29;20052;-48
2020/12/02 02:51:32;;;;;;;4.72;0.35;;;18.20;46.80;;;;;;4950558;29;20051;-48
2020/12/02 02:53:59;;;;;;;3.10;0.50;;;18.20;46.80;;;;;;4948366;29;20051;-51
2020/12/02 02:56:25;;;;;;;7.30;0.68;;;18.20;46.70;;;;;;4948369;29;20122;-50
2020/12/02 02:58:53;;;;;;;6.15;0.20;;;18.20;46.70;;;;;;4948045;29;20087;-48
2020/12/02 03:01:20;;;;;;;7.55;0.15;;;18.20;46.70;;;;;;4948175;29;20031;-51
2020/12/02 03:03:47;;;;;;;6.20;0.28;;;18.20;46.70;;;;;;4952357;29;20490;-47
2020/12/02 03:06:14;;;;;;;5.18;0.40;;;18.20;46.50;;;;;;4950434;29;20067;-50
2020/12/02 03:08:40;;;;;;;2.33;0.47;;;18.20;46.50;;;;;;4949330;29;20075;-48
2020/12/02 03:11:09;;;;;;;1.85;0.20;;;18.20;46.40;;;;;;4947874;29;20565;-51
2020/12/02 03:13:39;;;;;;;5.07;0.20;;;18.20;46.40;;;;;;4949707;29;20043;-46
2020/12/02 03:16:14;;;;;;;4.15;0.25;;;18.30;46.40;;;;;;4949664;29;20142;-50
2020/12/02 03:18:41;;;;;;;3.60;0.30;;;18.30;46.40;;;;;;4951635;29;20460;-51
2020/12/02 03:21:13;;;;;;;5.18;0.15;;;18.20;46.30;;;;;;4949118;29;20126;-51
2020/12/02 03:23:39;;;;;;;10.93;0.30;;;18.20;46.20;;;;;;4947156;29;20087;-52
2020/12/02 03:26:07;;;;;;;4.75;0.10;;;18.20;46.10;;;;;;4947598;29;20051;-51
2020/12/02 03:28:33;;;;;;;3.20;0.20;;;18.20;46.10;;;;;;4940278;29;20106;-49
2020/12/02 03:31:02;;;;;;;2.67;0.10;;;18.20;46.00;;;;;;4950050;29;20134;-47
2020/12/02 03:33:30;;;;;;;4.82;0.40;;;18.20;46.00;;;;;;4949848;29;20098;-51
2020/12/02 03:35:57;;;;;;;3.78;0.22;;;18.20;45.90;;;;;;4947766;29;20047;-51
2020/12/02 03:38:24;;;;;;;4.53;0.30;;;18.20;45.90;;;;;;4947491;29;20110;-47
2020/12/02 03:40:51;;;;;;;2.05;0.17;;;18.20;45.80;;;;;;4947558;29;20566;-47
2020/12/02 03:43:18;;;;;;;2.95;0.63;;;18.20;45.80;;;;;;4915876;29;20070;-47
2020/12/02 03:45:45;;;;;;;2.10;0.30;;;18.20;45.90;;;;;;4947564;29;20162;-48
2020/12/02 03:48:14;;;;;;;2.28;0.47;;;18.20;45.90;;;;;;4947430;29;20058;-51
2020/12/02 03:50:43;;;;;;;3.90;0.30;;;18.20;46.00;;;;;;4947614;29;20047;-50
2020/12/02 03:53:10;;;;;;;2.30;0.22;;;18.20;46.10;;;;;;4948804;29;20043;-50
2020/12/02 03:55:37;;;;;;;5.65;0.52;;;18.20;46.20;;;;;;4947275;29;20127;-52
2020/12/02 03:58:05;;;;;;;2.92;0.10;;;18.20;46.20;;;;;;4949355;29;20626;-50
2020/12/02 04:00:32;;;;;;;3.92;0.10;;;18.20;46.30;;;;;;4941550;28;20134;-51
2020/12/02 04:02:59;;;;;;;5.40;0.15;;;18.20;46.30;;;;;;4946958;29;20047;-52
2020/12/02 04:05:26;;;;;;;2.90;0.20;;;18.20;46.40;;;;;;4947379;29;20053;-51
2020/12/02 04:07:54;;;;;;;2.42;0.10;;;18.20;46.40;;;;;;4946852;29;20090;-49
2020/12/02 04:10:21;;;;;;;2.05;0.10;;;18.10;46.30;;;;;;4947047;29;20558;-48
2020/12/02 04:12:49;;;;;;;2.15;0.17;;;18.10;46.40;;;;;;4951397;29;20128;-48
2020/12/02 04:15:18;;;;;;;2.97;0.70;;;18.10;46.30;;;;;;4949452;29;20078;-48
2020/12/02 04:17:45;;;;;;;6.15;0.13;;;18.10;46.60;;;;;;4948877;29;20047;-51
2020/12/02 04:20:11;;;;;;;3.10;0.28;;;18.10;46.80;;;;;;4947243;29;20079;-48
2020/12/02 04:22:39;;;;;;;2.05;0.10;;;18.10;46.80;;;;;;4947550;29;20079;-47
2020/12/02 04:25:07;;;;;;;2.80;0.10;;;18.10;46.70;;;;;;4948702;29;20059;-52
2020/12/02 04:27:34;;;;;;;1.92;0.20;;;18.10;46.70;;;;;;4949625;29;20046;-48
2020/12/02 04:30:00;;;;;;;4.47;0.40;;;18.10;46.60;;;;;;4942994;29;20075;-48
2020/12/02 04:32:27;;;;;;;2.47;0.30;;;18.10;46.60;;;;;;4948476;29;20055;-50
2020/12/02 04:34:53;;;;;;;4.07;0.93;;;18.10;46.70;;;;;;4946982;29;20071;-49
2020/12/02 04:37:20;;;;;;;7.90;0.73;;;18.10;47.20;;;;;;4948401;29;20558;-50
2020/12/02 04:39:47;;;;;;;2.22;0.10;;;18.10;46.60;;;;;;4950657;29;20046;-51
2020/12/02 04:42:14;;;;;;;4.22;0.52;;;18.10;47.20;;;;;;4949024;29;20083;-51
2020/12/02 04:44:40;;;;;;;2.65;0.22;;;18.00;47.20;;;;;;4946815;29;20035;-48
2020/12/02 04:47:11;;;;;;;2.38;0.60;;;18.00;46.60;;;;;;4946852;29;20061;-46
2020/12/02 04:49:38;;;;;;;6.05;1.30;;;18.00;46.60;;;;;;4946905;29;20059;-52
2020/12/02 04:52:11;;;;;;;7.30;0.35;;;18.00;46.50;;;;;;4948790;29;20515;-48
2020/12/02 04:54:38;;;;;;;4.32;0.25;;;18.00;46.50;;;;;;4949673;29;20047;-48
2020/12/02 04:57:05;;;;;;;4.43;0.20;;;18.00;46.50;;;;;;4946706;29;20071;-48
2020/12/02 04:59:37;;;;;;;6.25;0.43;;;18.00;46.50;;;;;;4946683;29;20063;-49
2020/12/02 05:02:04;;;;;;;3.83;0.13;;;18.00;46.40;;;;;;4946703;29;20067;-47
2020/12/02 05:04:31;;;;;;;4.70;0.85;;;18.00;46.40;;;;;;4946388;29;20535;-46
2020/12/02 05:07:14;;;;;;;2.13;0.15;;;18.00;46.50;;;;;;4949202;29;20059;-47
2020/12/02 05:09:55;;;;;;;3.25;0.77;;;18.00;46.40;;;;;;4950038;29;20566;-48
2020/12/02 05:12:25;;;;;;;10.15;0.77;;;18.00;46.50;;;;;;4949994;28;20059;-48
2020/12/02 05:14:53;;;;;;;8.10;0.82;;;18.00;46.50;;;;;;4950154;29;20122;-49
2020/12/02 05:17:22;;;;;;;3.70;0.63;;;17.90;46.40;;;;;;4950159;29;20510;-46
2020/12/02 05:20:06;;;;;;;2.33;0.30;;;18.00;46.60;;;;;;4949758;29;20126;-46
2020/12/02 05:22:35;;;;;;;2.40;0.10;;;18.00;46.60;;;;;;4949993;29;20048;-47
2020/12/02 05:25:03;;;;;;;1.20;0.40;;;17.90;46.60;;;;;;4952180;29;20514;-47
2020/12/02 05:27:34;;;;;;;4.65;0.50;;;17.90;46.60;;;;;;4951873;29;20533;-47
2020/12/02 05:30:19;;;;;;;4.20;0.30;;;17.90;47.10;;;;;;4949949;29;20055;-48
2020/12/02 05:33:05;;;;;;;6.30;0.65;;;18.00;46.50;;;;;;4950046;29;20091;-48
2020/12/02 05:35:33;;;;;;;5.65;0.93;;;17.90;46.50;;;;;;4949996;29;20067;-49
2020/12/02 05:38:02;;;;;;;2.72;0.40;;;17.90;46.50;;;;;;4949584;29;20464;-51
2020/12/02 05:40:30;;;;;;;7.72;0.40;;;17.90;46.60;;;;;;4951662;29;20391;-48
2020/12/02 05:43:01;;;;;;;8.65;0.52;;;17.90;46.70;;;;;;4952269;29;20059;-50
2020/12/02 05:45:35;;;;;;;3.33;0.40;;;17.90;46.60;;;;;;4951509;29;20224;-48
2020/12/02 05:48:05;;;;;;;2.17;0.50;;;17.90;46.60;;;;;;4949322;29;20098;-49
2020/12/02 05:50:31;;;;;;;5.53;0.30;;;17.90;46.60;;;;;;4949614;29;20055;-47
2020/12/02 05:53:03;;;;;;;6.07;1.15;;;17.90;46.60;;;;;;4949925;29;20122;-48
2020/12/02 05:55:32;;;;;;;3.05;0.90;;;17.90;46.60;;;;;;4949844;29;20051;-50
2020/12/02 05:58:04;;;;;;;2.40;0.30;;;17.90;46.50;;;;;;4951653;29;20075;-51
2020/12/02 06:00:33;;;;;;;1.65;0.20;;;17.90;46.50;;;;;;4951510;29;20051;-48
2020/12/02 06:03:00;;;;;;;4.00;0.52;;;17.90;46.50;;;;;;4949471;29;20095;-47
2020/12/02 06:05:28;;;;;;;4.15;0.30;;;17.90;46.50;;;;;;4949235;29;20059;-47
2020/12/02 06:07:59;;;;;;;4.30;0.28;;;17.90;46.50;;;;;;4949325;29;20039;-48
2020/12/02 06:10:34;;;;;;;6.85;0.30;;;17.90;46.40;;;;;;4949517;29;20043;-49
2020/12/02 06:13:02;;;;;;;4.32;0.52;;;17.90;46.40;;;;;;4951733;29;20055;-49
2020/12/02 06:15:36;;;;;;;5.38;0.40;;;17.90;46.50;;;;;;4935656;29;20142;-49
2020/12/02 06:18:19;;;;;;;3.40;0.75;;;17.90;46.50;;;;;;4948997;29;20075;-51
2020/12/02 06:20:49;;;;;;;5.20;1.10;;;17.90;46.50;;;;;;4950238;29;20649;-51
2020/12/02 06:23:15;;;;;;;4.68;0.63;;;17.90;46.50;;;;;;4949113;29;20072;-50
2020/12/02 06:25:51;;;;;;;4.75;1.05;;;17.90;46.50;;;;;;4948650;28;20130;-47
2020/12/02 06:28:46;;;;;;;3.38;0.35;;;17.90;46.50;;;;;;4934246;29;20055;-48
2020/12/02 06:31:24;;;;;;;7.75;0.77;;;17.90;46.40;;;;;;4941067;29;20116;-51
2020/12/02 06:33:51;;;;;;;6.57;0.47;;;17.90;46.50;;;;;;4947681;29;20892;-51
2020/12/02 06:36:22;;;;;;;4.68;0.60;;;17.80;46.40;;;;;;4950842;29;20121;-49
2020/12/02 06:38:52;;;;;;;4.28;0.75;;;17.80;46.40;;;;;;4950400;29;20637;-49
2020/12/02 06:41:31;;;;;;;4.38;0.80;;;17.80;46.40;;;;;;4948545;29;20051;-48
2020/12/02 06:44:17;;;;;;;3.72;0.70;;;17.90;46.40;;;;;;4933985;29;20051;-49
2020/12/02 06:47:32;;;;;;;3.25;0.63;;;17.90;46.40;;;;;;4948804;29;20039;-48
2020/12/02 06:50:08;;;;;;;3.80;0.80;;;17.90;46.40;;;;;;4936871;29;20499;-49
2020/12/02 06:52:37;;;;;;;4.05;0.45;;;17.80;46.40;;;;;;4949913;29;20515;-47
2020/12/02 06:55:22;;;;;;;3.33;1.10;;;17.80;46.50;;;;;;4950669;29;20495;-47
2020/12/02 06:57:55;;;;;;;1.63;0.50;;;17.80;46.40;;;;;;4948538;29;20142;-48
2020/12/02 07:00:24;;;;;;;2.75;0.50;;;17.80;46.40;;;;;;4949596;29;20151;-48
2020/12/02 07:02:58;;;;;;;2.42;0.45;;;17.80;46.40;;;;;;4948400;29;20062;-47
2020/12/02 07:05:32;;;;;;;7.18;0.85;;;17.80;46.40;;;;;;4933572;29;20141;-46
2020/12/02 07:08:19;;;;;;;6.55;1.27;;;17.80;46.40;;;;;;4948010;29;20051;-46
2020/12/02 07:11:03;;;;;;;1.95;0.70;;;17.80;46.30;;;;;;4948482;29;20161;-48
2020/12/02 07:13:33;;;;;;;4.55;0.70;;;17.80;46.30;;;;;;4917225;29;20151;-47
2020/12/02 07:16:00;;;;;;;4.38;1.00;;;17.80;46.40;;;;;;4950358;29;20055;-50
2020/12/02 07:18:28;;;;;;;2.05;0.40;;;17.80;46.40;;;;;;4949298;29;20534;-50
2020/12/02 07:21:08;;;;;;;2.30;0.50;;;17.80;46.40;;;;;;4947965;29;20831;-50
2020/12/02 07:23:35;;;;;;;3.83;0.45;;;17.80;46.40;;;;;;4947943;29;20518;-53
2020/12/02 07:26:02;;;;;;;7.43;0.82;;;17.80;46.40;;;;;;4949621;29;20450;-49
2020/12/02 07:28:29;;;;;;;6.05;1.15;;;17.80;46.50;;;;;;4948068;29;20052;-48
2020/12/02 07:30:56;;;;;;;1.35;1.10;;;17.80;46.50;;;;;;4950749;29;20047;-48
2020/12/02 07:33:27;;;;;;;4.47;1.25;;;17.80;46.50;;;;;;4949970;29;20047;-48
2020/12/02 07:36:13;;;;;;;8.35;1.13;;;17.80;46.50;;;;;;4947148;28;20086;-48
2020/12/02 07:38:40;;;;;;;4.03;1.20;;;17.80;46.50;;;;;;4947407;29;20051;-49
2020/12/02 07:41:15;;;;;;;5.25;1.20;;;17.80;46.60;;;;;;4947202;29;20499;-52
2020/12/02 07:43:43;;;;;;;8.65;1.85;;;17.80;46.60;;;;;;4945289;29;20074;-48
2020/12/02 07:46:11;;;;;;;4.82;1.48;;;17.80;46.70;;;;;;4947667;29;20594;-47
2020/12/02 07:48:40;;;;;;;3.65;0.95;;;17.80;46.70;;;;;;4951038;29;20057;-47
2020/12/02 07:51:12;;;;;;;2.67;1.25;;;17.80;46.70;;;;;;4947459;29;20162;-49
2020/12/02 07:53:48;;;;;;;3.42;1.25;;;17.80;46.60;;;;;;4947285;29;20079;-48
2020/12/02 07:56:19;;;;;;;5.03;1.52;;;17.80;46.70;;;;;;4947180;29;20051;-48
2020/12/02 07:58:47;;;;;;;3.75;1.27;;;17.80;46.70;;;;;;4947013;29;20384;-48
2020/12/02 08:01:29;;;;;;;6.03;1.17;;;17.80;46.80;;;;;;4948071;29;20048;-48
2020/12/02 08:03:56;;;;;;;3.35;1.35;;;17.80;46.80;;;;;;4947062;29;20098;-49
2020/12/02 08:06:33;;;;;;;4.35;1.45;;;17.80;46.80;;;;;;4948704;29;20510;-49
2020/12/02 08:08:59;;;;;;;7.05;2.72;;;17.70;46.70;;;;;;4948415;29;20059;-47
2020/12/02 08:11:27;;;;;;;5.28;1.98;;;17.80;46.70;;;;;;4947092;29;20051;-47
2020/12/02 08:13:56;;;;;;;8.18;1.90;;;17.80;46.70;;;;;;4947115;29;20122;-48
2020/12/02 08:16:28;;;;;;;8.65;1.42;;;17.80;46.70;;;;;;4934503;29;20574;-53
2020/12/02 08:18:57;;;;;;;3.30;2.28;;;17.80;46.70;;;;;;4949780;29;20054;-50
2020/12/02 08:21:27;;;;;;;8.80;1.65;;;17.80;47.10;;;;;;4949855;29;20574;-50
2020/12/02 08:24:06;;;;;;;9.32;2.35;;;17.80;46.90;;;;;;4948466;29;20122;-49
2020/12/02 08:26:34;;;;;;;5.93;2.38;;;17.80;47.00;;;;;;4945359;29;20427;-51
2020/12/02 08:29:07;;;;;;;9.68;3.47;;;17.80;47.10;;;;;;4947047;29;20133;-55
2020/12/02 08:31:35;;;;;;;5.82;2.65;;;17.80;47.60;;;;;;4948553;29;20058;-49
2020/12/02 08:34:13;;;;;;;13.07;2.47;;;17.80;47.00;;;;;;4948343;29;20051;-50
2020/12/02 08:36:43;;;;;;;16.42;2.25;;;17.80;47.20;;;;;;4945238;29;20745;-50
2020/12/02 08:39:11;;;;;;;7.57;3.75;;;17.80;47.30;;;;;;4938566;29;20095;-50
2020/12/02 08:41:45;;;;;;;13.80;2.90;;;17.80;47.30;;;;;;4948646;29;20106;-51
2020/12/02 08:44:14;;;;;;;10.27;2.05;;;17.80;47.30;;;;;;4947046;29;20059;-50
2020/12/02 08:46:54;;;;;;;8.45;2.30;;;17.80;47.30;;;;;;4948234;29;20770;-52
2020/12/02 08:49:25;;;;;;;5.70;2.15;;;17.80;47.40;;;;;;4946918;29;20055;-49
2020/12/02 08:51:52;;;;;;;11.88;2.20;;;17.80;47.30;;;;;;4950418;29;20055;-56
2020/12/02 08:54:21;;;;;;;5.15;1.88;;;17.80;47.30;;;;;;4951542;29;20106;-51
2020/12/02 08:56:50;;;;;;;9.65;1.98;;;17.80;47.20;;;;;;4950611;29;20066;-50
2020/12/02 08:59:17;;;;;;;8.68;2.33;;;17.80;47.10;;;;;;4950206;29;20625;-53
2020/12/02 09:01:44;;;;;;;7.30;1.70;;;17.80;47.10;;;;;;4950660;29;20134;-48
2020/12/02 09:04:11;;;;;;;4.93;1.83;;;17.80;47.00;;;;;;4951907;29;20435;-53
2020/12/02 09:06:37;;;;;;;10.40;3.00;;;17.80;47.00;;;;;;4954327;29;20051;-52
2020/12/02 09:09:05;;;;;;;7.85;2.42;;;17.80;46.90;;;;;;4950565;29;20418;-54
2020/12/02 09:11:33;;;;;;;6.38;2.45;;;17.80;46.90;;;;;;4950602;29;20090;-55
2020/12/02 09:14:02;;;;;;;5.82;1.90;;;17.80;46.90;;;;;;4950203;29;20044;-50
2020/12/02 09:16:31;;;;;;;4.22;1.65;;;17.80;46.80;;;;;;4950364;29;20310;-54
2020/12/02 09:18:59;;;;;;;7.75;1.73;;;17.80;46.90;;;;;;4952772;29;20078;-49
2020/12/02 09:21:27;;;;;;;5.43;2.20;;;17.80;46.80;;;;;;4953151;29;20051;-53
2020/12/02 09:23:55;;;;;;;1.95;1.20;;;17.90;46.90;;;;;;4950214;29;20055;-48
2020/12/02 09:26:26;;;;;;;6.30;1.17;;;17.80;46.80;;;;;;4931369;29;20043;-51
2020/12/02 09:28:53;;;;;;;5.93;1.50;;;17.80;46.80;;;;;;4950211;29;20480;-49
2020/12/02 09:31:23;;;;;;;7.22;1.63;;;17.80;46.80;;;;;;4950305;29;20521;-51
2020/12/02 09:33:50;;;;;;;3.50;1.65;;;17.80;46.70;;;;;;4950287;29;20063;-51
2020/12/02 09:36:19;;;;;;;5.80;2.35;;;17.80;47.30;;;;;;4950591;29;20043;-48
2020/12/02 09:38:46;;;;;;;8.30;2.33;;;17.80;46.70;;;;;;4950132;29;20714;-47
2020/12/02 09:41:33;;;;;;;7.53;2.13;;;17.80;46.70;;;;;;4949906;29;20065;-51
2020/12/02 09:44:20;;;;;;;4.50;1.58;;;17.80;46.70;;;;;;4951213;29;20407;-48
2020/12/02 09:46:53;;;;;;;4.97;1.90;;;17.90;46.70;;;;;;4949837;29;20461;-50
2020/12/02 09:49:21;;;;;;;6.90;1.80;;;17.80;46.70;;;;;;4934881;29;20159;-49
2020/12/02 09:51:53;;;;;;;12.05;1.92;;;17.80;46.60;;;;;;4949653;29;20703;-48
2020/12/02 09:54:20;;;;;;;11.27;1.98;;;17.80;46.60;;;;;;4950623;29;20110;-50
2020/12/02 09:56:47;;;;;;;3.72;2.13;;;17.80;46.60;;;;;;4949602;29;20134;-52
2020/12/02 09:59:13;;;;;;;12.68;2.17;;;17.90;46.60;;;;;;4948190;29;20054;-54
2020/12/02 10:01:53;;;;;;;4.57;2.10;;;17.90;46.60;;;;;;4949710;29;20491;-51
2020/12/02 10:04:45;;;;;;;3.95;1.55;;;17.90;46.60;;;;;;4950904;29;20048;-50
2020/12/02 10:07:35;;;;;;;6.25;1.90;;;17.90;46.50;;;;;;4951011;29;20097;-51
2020/12/02 10:10:20;;;;;;;3.63;1.35;;;17.90;46.50;;;;;;4949515;29;20400;-50
2020/12/02 10:13:00;;;;;;;9.95;1.73;;;17.90;46.50;;;;;;4953045;29;20545;-49
2020/12/02 10:15:46;;;;;;;5.80;1.52;;;17.90;46.50;;;;;;4952401;29;20058;-49
2020/12/02 10:18:36;;;;;;;6.93;1.77;;;17.90;47.10;;;;;;4948725;29;20476;-49
2020/12/02 10:21:12;;;;;;;6.82;1.85;;;17.90;46.50;;;;;;4949227;29;20062;-49
2020/12/02 10:23:57;;;;;;;4.95;1.80;;;17.90;46.40;;;;;;4934735;29;20652;-49
2020/12/02 10:26:55;;;;;;;6.68;1.02;;;17.90;46.40;;;;;;4949043;29;20051;-48
2020/12/02 10:29:31;;;;;;;5.40;2.63;;;17.90;46.30;;;;;;4949181;29;20126;-49
2020/12/02 10:32:11;;;;;;;5.63;1.40;;;17.90;46.30;;;;;;4949136;29;20731;-48
2020/12/02 10:34:42;;;;;;;10.40;1.90;;;17.90;46.30;;;;;;4949275;29;20056;-52
2020/12/02 10:37:13;;;;;;;7.93;2.70;;;17.90;46.20;;;;;;4951166;29;20051;-47
2020/12/02 10:39:40;;;;;;;6.65;1.88;;;17.90;46.20;;;;;;4951827;29;20130;-47
2020/12/02 10:42:31;;;;;;;15.88;2.22;;;17.90;46.10;;;;;;4948849;29;20062;-47
2020/12/02 10:45:09;;;;;;;7.63;1.92;;;17.90;46.10;;;;;;4950294;29;20102;-47
2020/12/02 10:48:24;;;;;;;7.88;3.00;;;17.90;46.00;;;;;;4933396;29;20043;-47
2020/12/02 10:50:52;;;;;;;7.53;2.25;;;17.90;46.00;;;;;;4945377;29;20463;-47
2020/12/02 10:53:24;;;;;;;7.32;2.78;;;17.90;46.00;;;;;;4948711;29;20054;-49
2020/12/02 10:55:52;;;;;;;6.65;3.15;;;17.90;46.10;;;;;;4948596;29;20423;-48
2020/12/02 10:58:21;;;;;;;6.43;2.60;;;17.90;46.10;;;;;;4949335;29;20083;-48
2020/12/02 11:00:52;;;;;;;14.30;3.45;;;17.90;46.00;;;;;;4952411;29;20058;-47
2020/12/02 11:03:25;;;;;;;9.82;2.88;;;17.90;46.00;;;;;;4944555;29;20051;-47
2020/12/02 11:06:13;;;;;;;10.15;3.20;;;17.90;45.90;;;;;;4945176;29;20514;-47
2020/12/02 11:08:52;;;;;;;10.23;3.97;;;17.90;45.80;;;;;;4949655;29;20055;-47
2020/12/02 11:11:33;;;;;;;9.80;3.58;;;17.90;45.80;;;;;;4949733;28;20047;-48
2020/12/02 11:14:13;;;;;;;15.20;4.15;;;18.00;46.40;;;;;;4948444;29;20086;-48
2020/12/02 11:16:48;;;;;;;8.27;3.00;;;18.00;45.80;;;;;;4948482;29;20071;-49
2020/12/02 11:19:40;;;;;;;14.90;3.75;;;18.00;45.60;;;;;;4949570;29;20650;-48
2020/12/02 11:22:31;;;;;;;10.88;4.10;;;18.00;45.50;;;;;;4948372;29;20047;-47
2020/12/02 11:25:12;;;;;;;8.20;2.95;;;18.00;45.50;;;;;;4948197;29;20051;-47
2020/12/02 11:27:39;;;;;;;12.02;3.65;;;18.00;45.60;;;;;;4950450;29;20051;-47
2020/12/02 11:30:14;;;;;;;11.15;3.75;;;17.90;45.50;;;;;;4948632;29;20815;-48
2020/12/02 11:33:14;;;;;;;11.55;2.90;;;18.00;45.60;;;;;;4947684;29;20518;-49
2020/12/02 11:36:12;;;;;;;9.50;3.00;;;18.00;45.60;;;;;;4948022;29;20051;-49
2020/12/02 11:38:49;;;;;;;8.57;3.28;;;18.00;45.70;;;;;;4947922;29;20055;-49
2020/12/02 11:41:24;;;;;;;12.77;3.88;;;17.90;45.60;;;;;;4948111;29;20138;-46
2020/12/02 11:43:55;;;;;;;7.65;2.55;;;17.90;45.60;;;;;;4948056;29;20058;-47
2020/12/02 11:46:24;;;;;;;10.80;2.70;;;17.90;45.60;;;;;;4933049;29;20047;-47
2020/12/02 11:49:00;;;;;;;11.55;2.40;;;18.00;45.50;;;;;;4948161;29;20069;-48
2020/12/02 11:51:32;;;;;;;7.60;3.03;;;17.90;45.40;;;;;;4950885;29;20063;-51
2020/12/02 11:54:03;;;;;;;8.85;1.95;;;17.90;45.30;;;;;;4947607;29;20669;-49
2020/12/02 11:56:34;;;;;;;8.25;1.90;;;17.90;45.20;;;;;;4947729;29;20054;-47
2020/12/02 11:59:05;;;;;;;8.00;1.80;;;17.90;45.10;;;;;;4947646;29;20078;-49
2020/12/02 12:01:43;;;;;;;11.07;2.92;;;17.90;45.00;;;;;;4947780;29;20055;-51
2020/12/02 12:04:25;;;;;;;8.75;2.83;;;17.90;45.00;;;;;;4949721;29;20043;-47
2020/12/02 12:06:54;;;;;;;7.03;2.47;;;17.90;45.00;;;;;;4948072;29;20138;-48
2020/12/02 12:09:33;;;;;;;15.65;3.22;;;17.90;45.00;;;;;;4948382;29;20054;-47
2020/12/02 12:12:06;;;;;;;10.32;3.80;;;17.90;45.00;;;;;;4947776;29;20051;-50
2020/12/02 12:14:45;;;;;;;7.63;2.55;;;17.90;44.90;;;;;;4933247;29;20142;-49
2020/12/02 12:17:22;;;;;;;11.48;3.13;;;18.00;44.90;;;;;;4947651;29;20065;-52
2020/12/02 12:19:54;;;;;;;10.13;2.70;;;17.90;44.70;;;;;;4947453;29;20039;-50
2020/12/02 12:22:32;;;;;;;7.80;2.45;;;18.00;44.70;;;;;;4947266;28;20051;-52
2020/12/02 12:25:03;;;;;;;7.53;2.92;;;18.00;44.70;;;;;;4947641;29;20075;-50
2020/12/02 12:27:30;;;;;;;8.73;3.03;;;18.00;44.60;;;;;;4950669;29;20047;-50
2020/12/02 12:29:56;;;;;;;5.32;2.63;;;18.00;44.60;;;;;;4947534;29;20526;-48
2020/12/02 12:32:33;;;;;;;6.90;2.55;;;18.00;44.60;;;;;;4947571;29;20415;-50
2020/12/02 12:35:04;;;;;;;11.25;2.78;;;18.00;44.50;;;;;;4947650;29;20071;-49
2020/12/02 12:37:46;;;;;;;7.68;2.30;;;18.00;44.50;;;;;;4947453;29;20416;-52
2020/12/02 12:40:22;;;;;;;8.00;2.97;;;18.00;44.50;;;;;;4949035;29;20196;-52
2020/12/02 12:42:53;;;;;;;10.68;2.97;;;18.00;44.40;;;;;;4950875;29;20110;-49
2020/12/02 12:45:28;;;;;;;8.30;2.13;;;18.00;44.50;;;;;;4949491;29;20057;-49
2020/12/02 12:47:57;;;;;;;7.22;1.92;;;18.00;44.50;;;;;;4932928;29;20047;-50
2020/12/02 12:50:24;;;;;;;5.90;2.35;;;18.00;44.50;;;;;;4947433;29;20051;-50
2020/12/02 12:52:52;;;;;;;4.38;1.65;;;18.00;44.40;;;;;;4947455;29;20083;-52
2020/12/02 12:55:20;;;;;;;6.13;1.60;;;18.00;44.40;;;;;;4948944;29;20047;-51
2020/12/02 12:57:50;;;;;;;7.70;1.90;;;18.10;44.40;;;;;;4951135;29;20079;-52
2020/12/02 13:00:19;;;;;;;6.55;1.88;;;18.00;44.30;;;;;;4948567;29;20063;-54
2020/12/02 13:03:06;;;;;;;2.53;1.45;;;18.10;44.40;;;;;;4947174;29;20063;-48
2020/12/02 13:05:33;;;;;;;4.47;1.83;;;18.10;44.40;;;;;;4946973;29;20047;-47
2020/12/02 13:08:02;;;;;;;4.25;1.75;;;18.10;44.50;;;;;;4947264;29;20058;-48
2020/12/02 13:10:37;;;;;;;6.13;1.80;;;18.00;44.50;;;;;;4946933;29;20052;-49